Time;durP1;ratioP1;P1;durP2;ratioP2;P2;SDS_P1;SDS_P2;PMS_P1;PMS_P2;Temp;Humidity;BMP_temperature;BMP_pressure;BME280_temperature;BME280_humidity;BME280_pressure;Samples;Min_cycle;Max_cycle;Signal;HPM_P1;HPM_P2
2023/01/13 00:09:06;;;;;;;6.10;2.25;;;9.30;61.90;;;;;;20453788;28;20049;-42
2023/01/13 00:19:07;;;;;;;11.20;2.47;;;9.20;60.70;;;;;;20448350;28;20121;-42
2023/01/13 00:29:08;;;;;;;11.85;3.45;;;9.00;61.80;;;;;;20451380;28;20083;-42
2023/01/13 00:39:09;;;;;;;8.48;2.83;;;8.90;61.40;;;;;;20455042;28;20091;-42
2023/01/13 00:49:10;;;;;;;7.93;3.38;;;9.00;63.00;;;;;;20447474;28;20139;-42
2023/01/13 00:59:12;;;;;;;24.33;4.28;;;8.90;67.40;;;;;;20444568;28;20035;-42
2023/01/13 01:09:14;;;;;;;6.38;2.50;;;8.80;75.80;;;;;;20451696;28;20170;-42
2023/01/13 01:19:17;;;;;;;19.75;4.97;;;8.90;80.20;;;;;;20441739;28;20173;-42
2023/01/13 01:29:18;;;;;;;24.05;3.55;;;9.00;82.50;;;;;;20454049;28;20134;-42
2023/01/13 01:39:19;;;;;;;6.10;2.88;;;8.90;84.90;;;;;;20460559;28;20514;-42
2023/01/13 01:49:34;;;;;;;11.38;3.55;;;8.80;90.50;;;;;;20458070;28;20054;-43
2023/01/13 01:59:37;;;;;;;12.93;4.00;;;8.70;92.90;;;;;;20472407;28;20898;-43
2023/01/13 02:09:38;;;;;;;10.98;3.72;;;8.70;91.30;;;;;;20471882;28;20263;-43
2023/01/13 02:20:16;;;;;;;8.57;2.63;;;8.60;89.60;;;;;;20452419;28;20538;-41
2023/01/13 02:44:05;;;;;;;;;;;8.60;84.80;;;;;;20444961;28;21033;-43
2023/01/13 02:51:25;;;;;;;11.85;3.22;;;8.70;80.70;;;;;;20455224;28;20013;-42
2023/01/13 03:01:26;;;;;;;8.95;3.78;;;8.70;77.60;;;;;;20441036;28;21873;-43
2023/01/13 03:11:34;;;;;;;8.85;2.70;;;8.80;73.10;;;;;;20459064;28;20163;-43
2023/01/13 03:21:47;;;;;;;18.27;4.28;;;8.80;70.70;;;;;;20449596;28;20558;-42
2023/01/13 03:32:01;;;;;;;8.35;2.25;;;8.70;69.80;;;;;;20466646;28;21353;-43
2023/01/13 03:42:19;;;;;;;12.02;2.97;;;8.70;70.50;;;;;;20463149;28;20043;-43
2023/01/13 03:52:28;;;;;;;7.53;2.60;;;8.70;71.50;;;;;;20451629;28;20915;-42
2023/01/13 04:02:41;;;;;;;8.40;2.85;;;8.70;74.80;;;;;;20440005;28;20830;-43
2023/01/13 04:13:01;;;;;;;4.95;2.28;;;8.60;78.30;;;;;;20442142;28;20876;-42
2023/01/13 04:23:02;;;;;;;9.38;1.95;;;8.50;79.70;;;;;;20434810;28;20719;-42
2023/01/13 04:33:04;;;;;;;7.55;3.00;;;8.60;76.30;;;;;;20452575;28;20121;-42
2023/01/13 04:43:05;;;;;;;3.70;0.93;;;8.50;73.90;;;;;;20441881;28;20077;-43
2023/01/13 04:53:06;;;;;;;8.30;1.50;;;8.40;72.20;;;;;;20440673;28;20195;-42
2023/01/13 05:03:07;;;;;;;4.30;1.88;;;8.30;70.90;;;;;;20458185;28;20055;-43
2023/01/13 05:33:47;;;;;;;4.00;1.75;;;8.30;76.60;;;;;;20458204;28;20355;-42
2023/01/13 05:43:48;;;;;;;4.82;1.92;;;8.30;74.80;;;;;;20451836;28;20958;-42
2023/01/13 05:53:49;;;;;;;8.98;1.75;;;8.40;69.20;;;;;;20437203;28;20054;-43
2023/01/13 06:03:50;;;;;;;4.28;1.15;;;8.40;68.10;;;;;;20459681;28;20049;-43
2023/01/13 06:13:51;;;;;;;4.57;1.35;;;8.40;66.90;;;;;;20452509;28;20911;-42
2023/01/13 06:23:52;;;;;;;6.72;2.30;;;8.40;65.60;;;;;;20460406;28;20130;-43
2023/01/13 06:34:01;;;;;;;4.05;2.35;;;8.50;64.20;;;;;;20460627;28;21765;-43
2023/01/13 06:44:02;;;;;;;5.63;1.55;;;8.50;64.20;;;;;;20446532;28;20069;-43
2023/01/13 06:54:03;;;;;;;11.38;2.88;;;8.60;60.60;;;;;;20443962;28;20144;-43
2023/01/13 07:04:05;;;;;;;6.15;2.20;;;8.70;58.00;;;;;;20452465;28;20531;-42
2023/01/13 07:24:25;;;;;;;6.28;2.13;;;8.90;55.70;;;;;;20443528;28;20053;-42
2023/01/13 07:34:26;;;;;;;7.82;2.13;;;8.90;54.70;;;;;;20456895;28;20113;-42
2023/01/13 07:44:27;;;;;;;5.00;2.05;;;9.00;54.20;;;;;;20447482;28;20241;-43
2023/01/13 07:54:28;;;;;;;9.00;2.08;;;9.00;52.70;;;;;;20446702;28;20126;-43
2023/01/13 08:04:29;;;;;;;8.63;2.38;;;9.00;52.20;;;;;;20445505;28;20085;-43
2023/01/13 08:14:30;;;;;;;5.20;2.13;;;9.00;52.00;;;;;;20444177;28;20416;-43
2023/01/13 08:24:31;;;;;;;12.65;2.50;;;9.00;52.80;;;;;;20448010;28;20067;-42
2023/01/13 08:34:34;;;;;;;8.32;2.47;;;8.80;61.50;;;;;;20459620;28;20043;-42
2023/01/13 08:44:35;;;;;;;14.02;3.55;;;8.40;72.10;;;;;;20474712;28;20620;-42
2023/01/13 08:54:37;;;;;;;8.75;2.35;;;8.10;82.40;;;;;;20465349;28;20145;-42
2023/01/13 09:04:39;;;;;;;7.88;2.58;;;8.10;77.70;;;;;;20467943;28;20670;-42
2023/01/13 09:14:40;;;;;;;5.53;2.15;;;8.30;78.10;;;;;;20470660;28;20174;-42
2023/01/13 09:24:41;;;;;;;27.25;2.97;;;8.30;79.70;;;;;;20456047;28;20046;-42
2023/01/13 09:35:00;;;;;;;4.75;2.28;;;8.30;77.70;;;;;;20397027;28;20539;-42
2023/01/13 09:45:05;;;;;;;10.10;2.20;;;8.50;75.00;;;;;;20469518;28;20156;-42
2023/01/13 09:55:25;;;;;;;4.40;1.23;;;8.60;71.90;;;;;;20472021;28;20186;-42
2023/01/13 10:05:36;;;;;;;18.30;2.97;;;8.70;70.00;;;;;;20478783;28;20964;-42
2023/01/13 10:15:39;;;;;;;10.77;2.05;;;8.70;72.80;;;;;;20481492;28;20039;-42
2023/01/13 10:26:19;;;;;;;5.65;2.05;;;8.90;65.50;;;;;;20482767;28;21839;-42
2023/01/13 10:36:21;;;;;;;2.88;1.35;;;9.10;62.10;;;;;;20477947;28;20041;-42
2023/01/13 10:46:23;;;;;;;12.52;2.65;;;9.20;57.90;;;;;;20480211;28;20119;-42
2023/01/13 10:56:27;;;;;;;8.45;2.20;;;9.20;57.90;;;;;;20480837;28;20534;-43
2023/01/13 11:06:29;;;;;;;11.85;1.73;;;9.20;56.70;;;;;;20487788;28;20073;-42
2023/01/13 11:16:31;;;;;;;5.60;1.02;;;9.20;56.70;;;;;;20483524;28;20094;-42
2023/01/13 11:27:03;;;;;;;8.48;1.23;;;9.40;55.90;;;;;;20469569;28;20174;-42
2023/01/13 11:37:13;;;;;;;2.88;0.88;;;9.50;55.30;;;;;;20477989;28;20492;-42
2023/01/13 11:47:19;;;;;;;3.53;1.77;;;9.60;53.40;;;;;;20491761;28;20117;-42
2023/01/13 11:57:34;;;;;;;2.45;1.08;;;9.60;55.50;;;;;;20488432;28;20313;-43
2023/01/13 12:07:46;;;;;;;5.10;1.80;;;9.70;56.60;;;;;;20467100;28;20288;-42
2023/01/13 12:18:01;;;;;;;7.75;1.42;;;9.70;54.80;;;;;;20417630;28;20757;-42
2023/01/13 12:28:10;;;;;;;7.35;0.82;;;9.80;53.60;;;;;;20455940;28;20058;-42
2023/01/13 12:38:24;;;;;;;1.70;1.05;;;9.70;51.80;;;;;;20451291;28;20085;-42
2023/01/13 12:48:44;;;;;;;2.53;0.93;;;9.70;52.10;;;;;;20464895;28;20934;-42
2023/01/13 12:58:45;;;;;;;5.45;1.83;;;9.80;50.50;;;;;;20456749;28;20902;-43
2023/01/13 13:09:19;;;;;;;10.73;1.73;;;9.70;48.80;;;;;;20474994;28;20312;-43
2023/01/13 13:19:20;;;;;;;2.65;1.00;;;9.80;51.60;;;;;;20402229;28;20027;-42
2023/01/13 13:29:33;;;;;;;4.57;1.63;;;9.80;50.00;;;;;;20480160;28;20046;-42
2023/01/13 13:49:55;;;;;;;6.10;1.70;;;9.90;48.80;;;;;;20459630;28;21988;-42
2023/01/13 13:59:58;;;;;;;5.75;1.52;;;9.80;50.60;;;;;;20462719;28;20058;-42
2023/01/13 14:09:59;;;;;;;1.42;0.80;;;9.80;51.10;;;;;;20470926;28;20046;-42
2023/01/13 14:20:12;;;;;;;2.58;1.33;;;9.80;51.20;;;;;;20480489;28;20123;-42
2023/01/13 14:30:17;;;;;;;1.85;0.90;;;9.70;51.20;;;;;;20479905;28;20511;-43
2023/01/13 14:40:48;;;;;;;4.75;1.98;;;9.70;50.70;;;;;;20491938;28;20070;-42
2023/01/13 14:50:49;;;;;;;5.32;1.20;;;9.70;51.60;;;;;;20470664;28;21387;-42
2023/01/13 15:01:11;;;;;;;5.20;1.40;;;9.60;53.50;;;;;;20487808;28;20270;-42
2023/01/13 15:11:39;;;;;;;3.30;0.93;;;9.60;52.80;;;;;;20482105;28;20078;-43
2023/01/13 15:21:40;;;;;;;3.03;0.85;;;9.60;50.40;;;;;;20484750;28;20883;-45
2023/01/13 15:31:41;;;;;;;4.32;0.80;;;9.60;52.30;;;;;;20488910;28;21451;-42
2023/01/13 15:52:20;;;;;;;4.07;1.02;;;9.40;54.80;;;;;;20470660;28;20407;-42
2023/01/13 16:02:22;;;;;;;4.43;1.52;;;9.30;53.90;;;;;;20462173;28;20089;-43
2023/01/13 16:12:23;;;;;;;4.60;1.02;;;9.40;55.30;;;;;;20457346;28;20594;-42
2023/01/13 16:22:24;;;;;;;4.75;1.60;;;9.40;55.40;;;;;;20369182;28;20654;-42
2023/01/13 16:32:25;;;;;;;5.28;1.23;;;9.20;64.80;;;;;;20388295;28;20122;-42
2023/01/13 16:42:27;;;;;;;4.28;1.85;;;9.00;67.20;;;;;;20377833;28;20127;-41
2023/01/13 16:52:28;;;;;;;2.42;0.80;;;8.70;81.70;;;;;;20395503;28;20188;-41
2023/01/13 17:02:29;;;;;;;4.10;1.88;;;8.20;91.20;;;;;;20362410;28;20230;-41
2023/01/13 17:12:30;;;;;;;3.45;1.08;;;7.70;93.00;;;;;;20398502;28;20070;-41
2023/01/13 17:22:31;;;;;;;1.50;0.50;;;7.70;96.30;;;;;;20369578;28;20039;-41
2023/01/13 17:32:32;;;;;;;1.65;0.70;;;7.30;93.90;;;;;;20398411;28;20298;-42
2023/01/13 17:42:33;;;;;;;6.55;2.00;;;7.20;95.40;;;;;;20414037;28;20142;-42
2023/01/13 17:52:34;;;;;;;3.50;1.05;;;7.40;99.90;;;;;;20408928;28;20572;-42
2023/01/13 18:02:35;;;;;;;3.97;1.48;;;7.60;96.60;;;;;;20404517;28;20533;-42
2023/01/13 18:12:36;;;;;;;7.35;1.73;;;7.70;92.50;;;;;;20372758;28;21940;-42
2023/01/13 18:32:56;;;;;;;5.72;2.17;;;7.90;88.00;;;;;;20379323;28;21898;-42
2023/01/13 18:42:58;;;;;;;14.95;3.17;;;7.90;90.30;;;;;;20389594;28;20125;-43
2023/01/13 18:52:59;;;;;;;4.45;1.90;;;8.10;86.70;;;;;;20390562;28;20043;-42
2023/01/13 19:03:04;;;;;;;4.68;1.00;;;8.20;88.10;;;;;;20386174;28;20082;-42
2023/01/13 19:13:05;;;;;;;4.13;1.05;;;8.30;90.10;;;;;;20382151;28;20048;-43
2023/01/13 19:23:06;;;;;;;5.57;3.35;;;8.20;91.40;;;;;;20361215;28;20039;-42
2023/01/13 19:33:07;;;;;;;6.65;1.48;;;8.20;89.30;;;;;;20365786;28;20418;-42
2023/01/13 19:53:29;;;;;;;5.03;1.77;;;8.30;91.10;;;;;;20388116;28;20945;-42
2023/01/13 20:03:34;;;;;;;3.25;0.82;;;8.10;93.00;;;;;;20376760;28;20740;-42
2023/01/13 20:13:35;;;;;;;1.98;0.98;;;8.10;93.20;;;;;;20380135;28;20134;-42
2023/01/13 20:23:36;;;;;;;2.15;1.05;;;8.00;93.20;;;;;;20366994;28;20098;-42
2023/01/13 20:33:38;;;;;;;4.32;2.17;;;7.90;93.30;;;;;;20356766;28;20119;-42
2023/01/13 20:43:38;;;;;;;5.85;1.48;;;7.90;86.00;;;;;;20371976;28;20746;-42
2023/01/13 20:53:40;;;;;;;5.82;1.88;;;7.90;87.80;;;;;;20367817;28;20626;-42
2023/01/13 21:03:41;;;;;;;3.55;1.05;;;7.80;89.30;;;;;;20364315;28;20079;-42
2023/01/13 21:24:03;;;;;;;2.85;0.90;;;8.10;84.50;;;;;;20363862;28;20416;-42
2023/01/13 21:34:04;;;;;;;12.18;2.15;;;8.10;76.50;;;;;;20361031;28;20027;-43
2023/01/13 21:54:36;;;;;;;4.05;1.13;;;8.00;75.60;;;;;;20382077;28;22784;-43
2023/01/13 22:04:36;;;;;;;4.13;1.52;;;7.90;77.90;;;;;;20393861;28;20138;-42
2023/01/13 22:14:38;;;;;;;2.25;0.90;;;8.00;78.10;;;;;;20402929;28;20570;-42
2023/01/13 22:24:42;;;;;;;5.72;2.53;;;8.20;71.70;;;;;;20386143;28;20126;-43
2023/01/13 22:34:43;;;;;;;3.72;1.63;;;8.30;67.30;;;;;;20399558;28;20129;-42
2023/01/13 22:44:44;;;;;;;5.63;1.63;;;8.40;67.10;;;;;;20386994;28;20379;-42
2023/01/13 22:54:45;;;;;;;11.73;2.55;;;8.30;67.50;;;;;;20382896;28;20174;-43
2023/01/13 23:04:46;;;;;;;5.93;1.02;;;8.30;71.20;;;;;;20389207;28;20090;-43
2023/01/13 23:14:47;;;;;;;3.28;1.02;;;8.50;65.00;;;;;;20384840;28;20046;-42
2023/01/13 23:24:48;;;;;;;2.83;1.50;;;8.50;64.00;;;;;;20384983;28;20147;-42
2023/01/13 23:34:49;;;;;;;5.97;1.70;;;8.60;60.00;;;;;;20378066;28;20090;-42
2023/01/13 23:44:50;;;;;;;3.95;1.00;;;8.40;60.80;;;;;;20380781;28;20058;-42
2023/01/13 23:54:51;;;;;;;2.63;0.90;;;8.40;61.30;;;;;;20378389;28;20122;-42
